createdAt,value
2023-02-16T00:01:42.892Z,43.03
2023-02-16T00:04:15.321Z,38.50
2023-02-16T00:06:41.593Z,38.23
2023-02-16T00:09:07.871Z,42.97
2023-02-16T00:11:54.147Z,41.33
2023-02-16T00:14:26.131Z,42.87
2023-02-16T00:16:53.133Z,42.17
2023-02-16T00:19:19.439Z,39.73
2023-02-16T00:21:46.528Z,36.33
2023-02-16T00:24:12.869Z,46.83
2023-02-16T00:26:40.161Z,43.20
2023-02-16T00:29:06.477Z,44.13
2023-02-16T00:31:33.031Z,42.53
2023-02-16T00:34:00.396Z,42.97
2023-02-16T00:36:26.676Z,47.27
2023-02-16T00:38:53.108Z,47.13
2023-02-16T00:41:42.776Z,46.40
2023-02-16T00:44:17.148Z,41.67
2023-02-16T00:46:44.348Z,48.50
2023-02-16T00:49:14.946Z,48.63
2023-02-16T00:51:41.374Z,40.80
2023-02-16T00:54:07.739Z,40.70
2023-02-16T00:56:34.096Z,45.43
2023-02-16T00:59:02.251Z,39.20
2023-02-16T01:01:32.646Z,40.67
2023-02-16T01:04:01.325Z,41.67
2023-02-16T01:06:46.040Z,49.07
2023-02-16T01:09:32.437Z,49.20
2023-02-16T01:11:59.164Z,43.77
2023-02-16T01:14:25.708Z,45.27
2023-02-16T01:16:52.033Z,49.00
2023-02-16T01:19:18.511Z,48.97
2023-02-16T01:21:44.816Z,45.90
2023-02-16T01:24:11.098Z,48.73
2023-02-16T01:26:38.798Z,46.30
2023-02-16T01:29:05.138Z,50.57
2023-02-16T01:31:31.552Z,45.63
2023-02-16T01:33:57.926Z,49.20
2023-02-16T01:36:26.475Z,44.63
2023-02-16T01:38:52.878Z,53.27
2023-02-16T01:41:28.382Z,49.80
2023-02-16T01:44:05.755Z,44.53
2023-02-16T01:46:32.073Z,49.43
2023-02-16T01:48:59.834Z,49.50
2023-02-16T01:51:28.333Z,51.90
2023-02-16T01:54:00.537Z,49.70
2023-02-16T01:56:35.578Z,54.53
2023-02-16T01:59:04.537Z,51.30
2023-02-16T02:01:39.771Z,53.10
2023-02-16T02:04:30.468Z,45.90
2023-02-16T02:06:56.821Z,42.07
2023-02-16T02:09:27.397Z,53.73
2023-02-16T02:12:00.409Z,50.33
2023-02-16T02:14:35.493Z,44.97
2023-02-16T02:17:05.218Z,45.30
2023-02-16T02:19:38.543Z,50.03
2023-02-16T02:22:50.339Z,47.83
2023-02-16T02:25:35.703Z,43.27
2023-02-16T02:28:09.673Z,47.97
2023-02-16T02:30:56.784Z,43.03
2023-02-16T02:33:23.119Z,45.27
2023-02-16T02:36:12.816Z,50.07
2023-02-16T02:38:42.103Z,53.40
2023-02-16T02:41:11.521Z,48.60
2023-02-16T02:43:37.915Z,47.90
2023-02-16T02:46:27.756Z,49.93
2023-02-16T02:48:54.073Z,47.90
2023-02-16T02:51:29.199Z,47.17
2023-02-16T02:54:15.491Z,51.33
2023-02-16T02:57:01.829Z,53.23
2023-02-16T02:59:50.709Z,47.27
2023-02-16T03:02:17.420Z,52.07
2023-02-16T03:04:44.401Z,49.83
2023-02-16T03:07:11.776Z,56.53
2023-02-16T03:09:38.104Z,50.20
2023-02-16T03:12:23.795Z,47.97
2023-02-16T03:14:52.783Z,45.47
2023-02-16T03:17:39.498Z,46.57
2023-02-16T03:20:26.922Z,53.27
2023-02-16T03:23:12.232Z,49.10
2023-02-16T03:25:57.778Z,48.87
2023-02-16T03:28:44.150Z,51.50
2023-02-16T03:31:12.793Z,54.83
2023-02-16T03:33:39.642Z,50.40
2023-02-16T03:36:06.816Z,52.30
2023-02-16T03:38:33.586Z,49.07
2023-02-16T03:40:59.930Z,46.30
2023-02-16T03:43:27.662Z,49.23
2023-02-16T03:45:54.351Z,44.70
2023-02-16T03:48:21.075Z,55.93
2023-02-16T03:50:47.786Z,50.73
2023-02-16T03:53:15.123Z,48.07
2023-02-16T03:55:44.303Z,54.07
2023-02-16T03:58:11.790Z,51.43
2023-02-16T04:00:38.751Z,50.83
2023-02-16T04:03:05.978Z,52.03
2023-02-16T04:05:33.297Z,53.00
2023-02-16T04:07:59.875Z,48.17
2023-02-16T04:10:26.572Z,50.47
2023-02-16T04:12:53.304Z,49.23
2023-02-16T04:15:24.529Z,50.23
2023-02-16T04:17:50.873Z,46.87
2023-02-16T04:20:18.956Z,50.23
2023-02-16T04:22:45.943Z,53.77
2023-02-16T04:25:12.362Z,46.10
2023-02-16T04:27:39.344Z,52.97
2023-02-16T04:30:06.537Z,46.30
2023-02-16T04:32:33.297Z,49.93
2023-02-16T04:34:59.655Z,45.67
2023-02-16T04:37:25.980Z,49.43
2023-02-16T04:39:52.400Z,46.63
2023-02-16T04:42:18.685Z,50.10
2023-02-16T04:44:45.032Z,46.20
2023-02-16T04:47:11.588Z,45.60
2023-02-16T04:49:37.907Z,45.07
2023-02-16T04:52:04.882Z,51.33
2023-02-16T04:54:32.338Z,53.00
2023-02-16T04:56:58.652Z,50.40
2023-02-16T04:59:25.428Z,49.53
2023-02-16T05:01:51.807Z,46.33
2023-02-16T05:04:18.159Z,46.97
2023-02-16T05:06:44.594Z,45.07
2023-02-16T05:09:11.129Z,39.80
2023-02-16T05:11:56.337Z,50.70
2023-02-16T05:14:42.334Z,46.40
2023-02-16T05:17:08.618Z,50.40
2023-02-16T05:19:35.074Z,49.93
2023-02-16T05:22:01.397Z,45.80
2023-02-16T05:24:28.539Z,54.80
2023-02-16T05:26:54.932Z,44.50
2023-02-16T05:29:21.304Z,48.17
2023-02-16T05:31:47.998Z,48.53
2023-02-16T05:34:14.430Z,48.87
2023-02-16T05:36:40.718Z,49.13
2023-02-16T05:39:07.093Z,53.40
2023-02-16T05:41:36.948Z,47.80
2023-02-16T05:44:03.876Z,47.17
2023-02-16T05:46:32.593Z,47.93
2023-02-16T05:48:59.797Z,52.47
2023-02-16T05:51:26.786Z,45.00
2023-02-16T05:53:53.455Z,48.87
2023-02-16T05:56:20.463Z,48.00
2023-02-16T05:58:47.046Z,43.57
2023-02-16T06:01:13.998Z,45.07
2023-02-16T06:03:40.674Z,48.63
2023-02-16T06:06:07.488Z,50.67
2023-02-16T06:08:33.951Z,44.83
2023-02-16T06:11:00.373Z,47.30
2023-02-16T06:13:26.704Z,46.57
2023-02-16T06:15:54.528Z,42.37
2023-02-16T06:18:21.381Z,52.93
2023-02-16T06:20:47.831Z,46.83
2023-02-16T06:23:14.297Z,51.00
2023-02-16T06:25:44.852Z,44.03
2023-02-16T06:28:11.420Z,54.47
2023-02-16T06:30:37.898Z,50.77
2023-02-16T06:33:04.459Z,49.50
2023-02-16T06:35:31.290Z,43.07
2023-02-16T06:37:59.128Z,44.50
2023-02-16T06:40:25.984Z,48.53
2023-02-16T06:42:52.310Z,50.23
2023-02-16T06:45:19.233Z,47.83
2023-02-16T06:47:45.558Z,47.53
2023-02-16T06:50:14.423Z,45.90
2023-02-16T06:52:40.888Z,51.93
2023-02-16T06:55:08.439Z,47.53
2023-02-16T06:57:34.833Z,47.23
2023-02-16T07:00:01.148Z,46.07
2023-02-16T07:02:27.536Z,47.97
2023-02-16T07:04:54.601Z,47.77
2023-02-16T07:07:21.002Z,43.97
2023-02-16T07:09:47.370Z,47.50
2023-02-16T07:12:13.710Z,52.10
2023-02-16T07:14:40.027Z,50.33
2023-02-16T07:17:06.556Z,44.33
2023-02-16T07:19:33.808Z,46.27
2023-02-16T07:22:01.078Z,46.20
2023-02-16T07:24:27.598Z,44.03
2023-02-16T07:26:55.036Z,42.17
2023-02-16T07:29:21.351Z,44.03
2023-02-16T07:31:47.997Z,47.20
2023-02-16T07:34:14.762Z,51.33
2023-02-16T07:36:41.061Z,42.47
2023-02-16T07:39:07.396Z,48.67
2023-02-16T07:41:34.726Z,49.50
2023-02-16T07:44:01.070Z,50.57
2023-02-16T07:46:28.477Z,48.90
2023-02-16T07:48:54.791Z,46.73
2023-02-16T07:51:22.486Z,56.00
2023-02-16T07:53:48.920Z,51.50
2023-02-16T07:56:19.420Z,46.70
2023-02-16T07:58:47.331Z,53.27
2023-02-16T08:01:17.513Z,50.67
2023-02-16T08:03:43.845Z,45.07
2023-02-16T08:06:10.512Z,52.60
2023-02-16T08:08:37.711Z,50.53
2023-02-16T08:11:16.356Z,48.53
2023-02-16T08:13:43.016Z,51.30
2023-02-16T08:16:10.074Z,42.93
2023-02-16T08:18:36.826Z,45.20
2023-02-16T08:21:14.065Z,52.73
2023-02-16T08:23:41.833Z,49.43
2023-02-16T08:26:09.791Z,49.30
2023-02-16T08:28:38.386Z,49.83
2023-02-16T08:31:06.015Z,45.77
2023-02-16T08:33:33.595Z,49.80
2023-02-16T08:36:00.056Z,45.93
2023-02-16T08:38:26.362Z,48.63
2023-02-16T08:40:52.825Z,52.03
2023-02-16T08:43:19.183Z,47.57
2023-02-16T08:45:48.496Z,44.10
2023-02-16T08:48:15.063Z,48.83
2023-02-16T08:50:53.413Z,45.33
2023-02-16T08:53:21.464Z,56.53
2023-02-16T08:55:55.719Z,47.13
2023-02-16T08:58:22.270Z,56.50
2023-02-16T09:00:49.715Z,46.30
2023-02-16T09:03:19.166Z,49.53
2023-02-16T09:05:46.427Z,49.57
2023-02-16T09:08:13.011Z,70.43
2023-02-16T09:10:39.425Z,55.67
2023-02-16T09:13:05.842Z,51.47
2023-02-16T09:15:32.631Z,58.37
2023-02-16T09:17:59.329Z,53.70
2023-02-16T09:20:27.420Z,53.43
2023-02-16T09:22:54.900Z,54.00
2023-02-16T09:25:22.120Z,53.53
2023-02-16T09:27:48.416Z,54.77
2023-02-16T09:30:14.851Z,51.30
2023-02-16T09:32:42.862Z,53.93
2023-02-16T09:35:09.395Z,58.73
2023-02-16T09:37:35.805Z,50.90
2023-02-16T09:40:02.183Z,49.10
2023-02-16T09:42:32.886Z,50.43
2023-02-16T09:45:07.480Z,60.37
2023-02-16T09:47:34.820Z,59.73
2023-02-16T09:50:03.882Z,52.17
2023-02-16T09:52:37.329Z,54.90
2023-02-16T09:55:17.979Z,50.43
2023-02-16T09:58:08.200Z,56.00
2023-02-16T10:00:34.510Z,49.90
2023-02-16T10:03:15.970Z,54.00
2023-02-16T10:05:49.468Z,66.13
2023-02-16T10:08:22.748Z,57.47
2023-02-16T10:11:02.065Z,56.17
2023-02-16T10:13:37.424Z,51.00
2023-02-16T10:16:05.565Z,55.53
2023-02-16T10:18:34.084Z,56.83
2023-02-16T10:21:02.173Z,58.37
2023-02-16T10:23:44.841Z,49.93
2023-02-16T10:26:17.921Z,64.07
2023-02-16T10:28:48.849Z,61.27
2023-02-16T10:31:21.309Z,53.37
2023-02-16T10:34:06.869Z,60.80
2023-02-16T10:36:33.175Z,54.20
2023-02-16T10:39:07.149Z,53.73
2023-02-16T10:41:39.382Z,55.23
2023-02-16T10:44:27.065Z,61.97
2023-02-16T10:47:04.513Z,55.03
2023-02-16T10:49:32.705Z,67.83
2023-02-16T10:52:01.382Z,56.07
2023-02-16T10:54:32.347Z,52.73
2023-02-16T10:57:00.916Z,55.10
2023-02-16T10:59:43.807Z,53.50
2023-02-16T11:02:20.473Z,57.83
2023-02-16T11:04:48.662Z,57.63
2023-02-16T11:07:19.691Z,53.73
2023-02-16T11:09:47.760Z,56.37
2023-02-16T11:12:16.825Z,58.73
2023-02-16T11:14:48.414Z,53.20
2023-02-16T11:17:16.428Z,60.53
2023-02-16T11:19:50.562Z,60.37
2023-02-16T11:22:46.246Z,51.03
2023-02-16T11:25:18.778Z,66.43
2023-02-16T11:28:08.303Z,58.90
2023-02-16T11:30:35.899Z,62.17
2023-02-16T11:33:04.519Z,67.83
2023-02-16T11:35:32.965Z,62.13
2023-02-16T11:37:59.736Z,55.97
2023-02-16T11:40:26.935Z,59.47
2023-02-16T11:42:54.865Z,65.67
2023-02-16T11:45:27.187Z,56.13
2023-02-16T11:48:16.818Z,52.03
2023-02-16T11:51:15.713Z,57.80
2023-02-16T11:53:43.278Z,50.93
2023-02-16T11:56:18.708Z,54.70
2023-02-16T11:58:45.158Z,50.67
2023-02-16T12:01:24.235Z,52.07
2023-02-16T12:04:24.337Z,50.37
2023-02-16T12:07:20.270Z,46.17
2023-02-16T12:09:53.583Z,42.67
2023-02-16T12:12:32.054Z,41.07
2023-02-16T12:15:17.318Z,44.63
2023-02-16T12:17:54.880Z,42.17
2023-02-16T12:20:45.344Z,38.20
2023-02-16T12:23:20.638Z,38.53
2023-02-16T12:25:54.207Z,34.73
2023-02-16T12:28:27.985Z,31.77
2023-02-16T12:31:17.580Z,27.33
2023-02-16T12:33:50.532Z,31.07
2023-02-16T12:36:29.021Z,32.07
2023-02-16T12:38:57.557Z,30.67
2023-02-16T12:41:40.115Z,26.97
2023-02-16T12:44:10.841Z,32.70
2023-02-16T12:46:43.028Z,28.33
2023-02-16T12:49:14.473Z,26.57
2023-02-16T12:51:48.264Z,27.60
2023-02-16T12:54:20.006Z,32.47
2023-02-16T12:56:50.175Z,28.57
2023-02-16T12:59:19.444Z,31.87
2023-02-16T13:01:46.790Z,23.40
2023-02-16T13:04:17.669Z,33.70
2023-02-16T13:06:47.168Z,29.03
2023-02-16T13:09:34.158Z,28.10
2023-02-16T13:12:19.437Z,27.73
2023-02-16T13:14:49.924Z,26.63
2023-02-16T13:17:19.263Z,25.17
2023-02-16T13:19:46.296Z,28.33
2023-02-16T13:22:18.536Z,24.20
2023-02-16T13:24:45.428Z,27.33
2023-02-16T13:27:20.963Z,28.83
2023-02-16T13:29:47.592Z,24.50
2023-02-16T13:32:18.651Z,24.77
2023-02-16T13:34:58.429Z,27.73
2023-02-16T13:37:43.589Z,27.57
2023-02-16T13:40:16.344Z,25.03
2023-02-16T13:43:01.280Z,25.13
2023-02-16T13:45:29.496Z,24.07
2023-02-16T13:47:57.361Z,25.27
2023-02-16T13:50:23.911Z,26.93
2023-02-16T13:52:51.961Z,27.10
2023-02-16T13:55:27.558Z,28.73
2023-02-16T13:58:01.169Z,26.67
2023-02-16T14:00:37.031Z,28.80
2023-02-16T14:03:04.992Z,28.27
2023-02-16T14:05:38.684Z,29.83
2023-02-16T14:08:13.223Z,27.77
2023-02-16T14:10:55.174Z,28.30
2023-02-16T14:13:21.500Z,27.80
2023-02-16T14:15:52.175Z,27.87
2023-02-16T14:18:32.901Z,31.70
2023-02-16T14:21:06.774Z,31.73
2023-02-16T14:23:36.952Z,31.97
2023-02-16T14:26:07.901Z,30.53
2023-02-16T14:28:35.434Z,31.53
2023-02-16T14:31:12.389Z,29.70
2023-02-16T14:33:41.152Z,34.53
2023-02-16T14:36:13.900Z,27.97
2023-02-16T14:38:40.185Z,25.80
2023-02-16T14:41:13.727Z,26.47
2023-02-16T14:43:45.701Z,28.93
2023-02-16T14:46:29.321Z,29.57
2023-02-16T14:49:05.075Z,28.53
2023-02-16T14:51:50.941Z,31.53
2023-02-16T14:54:17.260Z,27.17
2023-02-16T14:56:52.150Z,27.67
2023-02-16T14:59:30.625Z,31.87
2023-02-16T15:01:57.040Z,23.63
2023-02-16T15:04:30.387Z,25.63
2023-02-16T15:06:58.170Z,29.73
2023-02-16T15:09:26.326Z,28.40
2023-02-16T15:12:13.449Z,30.77
2023-02-16T15:15:00.356Z,26.60
2023-02-16T15:17:35.779Z,26.60
2023-02-16T15:20:04.162Z,29.03
2023-02-16T15:22:30.773Z,26.63
2023-02-16T15:24:57.374Z,26.53
2023-02-16T15:27:24.529Z,26.67
2023-02-16T15:30:06.522Z,25.87
2023-02-16T15:32:33.317Z,29.43
2023-02-16T15:35:08.540Z,24.37
2023-02-16T15:37:37.767Z,28.67
2023-02-16T15:40:26.122Z,24.77
2023-02-16T15:42:54.228Z,30.90
2023-02-16T15:45:25.928Z,28.17
2023-02-16T15:47:53.492Z,23.33
2023-02-16T15:50:24.165Z,28.10
2023-02-16T15:52:50.506Z,27.03
2023-02-16T15:55:17.196Z,26.70
2023-02-16T15:57:43.516Z,29.00
2023-02-16T16:00:20.835Z,25.83
2023-02-16T16:02:48.921Z,32.93
2023-02-16T16:05:21.120Z,28.40
2023-02-16T16:07:47.786Z,26.80
2023-02-16T16:10:22.462Z,28.27
2023-02-16T16:12:50.603Z,26.30
2023-02-16T16:15:21.096Z,25.37
2023-02-16T16:17:47.425Z,23.40
2023-02-16T16:20:35.782Z,22.03
2023-02-16T16:23:17.238Z,26.90
2023-02-16T16:25:47.693Z,25.83
2023-02-16T16:28:32.323Z,23.53
2023-02-16T16:31:12.429Z,25.93
2023-02-16T16:33:57.675Z,21.17
2023-02-16T16:36:37.495Z,18.27
2023-02-16T16:39:10.068Z,22.20
2023-02-16T16:41:36.437Z,17.43
2023-02-16T16:44:02.858Z,14.77
2023-02-16T16:46:30.474Z,17.43
2023-02-16T16:49:00.132Z,17.77
2023-02-16T16:51:31.413Z,16.60
2023-02-16T16:54:00.623Z,13.40
2023-02-16T16:56:28.234Z,15.90
2023-02-16T16:58:56.874Z,14.87
2023-02-16T17:01:23.918Z,13.67
2023-02-16T17:03:50.340Z,15.20
2023-02-16T17:06:18.316Z,12.50
2023-02-16T17:08:45.365Z,15.30
2023-02-16T17:11:13.967Z,13.40
2023-02-16T17:13:40.282Z,11.10
2023-02-16T17:16:07.963Z,14.23
2023-02-16T17:18:34.447Z,10.10
2023-02-16T17:21:00.856Z,10.20
2023-02-16T17:23:27.264Z,10.70
2023-02-16T17:25:53.567Z,10.43
2023-02-16T17:28:20.066Z,12.33
2023-02-16T17:30:46.383Z,10.30
2023-02-16T17:33:12.905Z,11.97
2023-02-16T17:35:40.798Z,12.00
2023-02-16T17:38:11.684Z,10.13
2023-02-16T17:40:39.374Z,9.10
2023-02-16T17:43:13.588Z,9.37
2023-02-16T17:45:40.289Z,8.30
2023-02-16T17:48:06.603Z,7.87
2023-02-16T17:50:33.355Z,10.43
2023-02-16T17:52:59.851Z,10.70
2023-02-16T17:55:26.241Z,8.43
2023-02-16T17:57:52.602Z,7.00
2023-02-16T18:00:20.171Z,11.37
2023-02-16T18:02:46.852Z,11.47
2023-02-16T18:05:13.277Z,10.33
2023-02-16T18:07:39.609Z,10.63
2023-02-16T18:10:06.291Z,9.97
2023-02-16T18:12:32.724Z,11.50
2023-02-16T18:14:59.026Z,13.90
2023-02-16T18:17:25.342Z,10.13
2023-02-16T18:19:51.687Z,12.53
2023-02-16T18:22:18.029Z,11.03
2023-02-16T18:24:44.693Z,15.03
2023-02-16T18:27:11.045Z,12.10
2023-02-16T18:29:37.431Z,13.27
2023-02-16T18:32:04.390Z,11.60
2023-02-16T18:34:32.460Z,13.80
2023-02-16T18:36:58.823Z,12.63
2023-02-16T18:39:25.127Z,13.77
2023-02-16T18:41:51.444Z,15.30
2023-02-16T18:44:17.882Z,14.13
2023-02-16T18:46:44.179Z,12.97
2023-02-16T18:49:10.497Z,13.37
2023-02-16T18:51:36.811Z,12.77
2023-02-16T18:54:03.189Z,13.30
2023-02-16T18:56:29.612Z,8.43
2023-02-16T18:58:55.992Z,11.93
2023-02-16T19:01:27.229Z,8.93
2023-02-16T19:03:54.014Z,9.20
2023-02-16T19:06:20.358Z,9.57
2023-02-16T19:08:47.599Z,9.57
2023-02-16T19:11:14.017Z,10.37
2023-02-16T19:13:40.413Z,7.30
2023-02-16T19:16:07.203Z,11.63
2023-02-16T19:18:33.884Z,7.67
2023-02-16T19:21:03.644Z,9.30
2023-02-16T19:23:29.931Z,8.53
2023-02-16T19:25:56.313Z,7.83
2023-02-16T19:28:22.746Z,7.13
2023-02-16T19:30:50.181Z,9.53
2023-02-16T19:33:16.545Z,13.83
2023-02-16T19:35:43.025Z,8.83
2023-02-16T19:38:09.507Z,8.77
2023-02-16T19:40:35.947Z,9.00
2023-02-16T19:43:02.275Z,7.17
2023-02-16T19:45:28.688Z,12.37
2023-02-16T19:47:55.045Z,9.93
2023-02-16T19:50:21.452Z,10.50
2023-02-16T19:52:47.821Z,9.00
2023-02-16T19:55:14.191Z,10.87
2023-02-16T19:57:40.493Z,10.47
2023-02-16T20:00:11.313Z,11.63
2023-02-16T20:02:37.697Z,11.67
2023-02-16T20:05:06.641Z,11.57
2023-02-16T20:07:36.048Z,13.13
2023-02-16T20:10:02.752Z,13.07
2023-02-16T20:12:29.062Z,8.17
2023-02-16T20:14:55.429Z,10.60
2023-02-16T20:17:21.771Z,14.10
2023-02-16T20:19:48.170Z,9.70
2023-02-16T20:22:14.590Z,11.93
2023-02-16T20:24:40.879Z,13.27
2023-02-16T20:27:07.402Z,10.50
2023-02-16T20:29:33.718Z,11.27
2023-02-16T20:32:00.141Z,14.93
2023-02-16T20:34:27.442Z,13.07
2023-02-16T20:36:54.208Z,15.27
2023-02-16T20:39:22.103Z,11.83
2023-02-16T20:41:48.444Z,14.40
2023-02-16T20:44:15.332Z,14.10
2023-02-16T20:46:42.083Z,16.57
2023-02-16T20:49:08.923Z,12.30
2023-02-16T20:51:35.438Z,15.40
2023-02-16T20:54:02.896Z,11.43
2023-02-16T20:56:29.339Z,11.43
2023-02-16T20:58:56.761Z,13.73
2023-02-16T21:01:24.976Z,13.37
2023-02-16T21:03:52.236Z,12.97
2023-02-16T21:06:19.088Z,15.43
2023-02-16T21:08:45.655Z,15.10
2023-02-16T21:11:12.127Z,13.27
2023-02-16T21:13:39.493Z,14.53
2023-02-16T21:16:07.318Z,17.23
2023-02-16T21:18:34.450Z,11.60
2023-02-16T21:21:01.441Z,14.83
2023-02-16T21:23:28.885Z,15.23
2023-02-16T21:26:02.272Z,14.27
2023-02-16T21:28:28.637Z,12.93
2023-02-16T21:30:55.506Z,19.60
2023-02-16T21:33:22.303Z,12.50
2023-02-16T21:35:48.659Z,15.40
2023-02-16T21:38:15.276Z,12.60
2023-02-16T21:41:02.999Z,11.67
2023-02-16T21:43:29.368Z,15.80
2023-02-16T21:46:00.651Z,13.47
2023-02-16T21:48:45.188Z,14.27
2023-02-16T21:51:12.250Z,16.30
2023-02-16T21:53:38.585Z,13.53
2023-02-16T21:56:19.404Z,12.43
2023-02-16T21:58:46.663Z,15.47
2023-02-16T22:01:13.701Z,14.90
2023-02-16T22:03:40.478Z,8.13
2023-02-16T22:06:07.863Z,13.07
2023-02-16T22:08:36.784Z,13.50
2023-02-16T22:11:06.849Z,8.77
2023-02-16T22:13:33.315Z,18.27
2023-02-16T22:15:59.757Z,6.63
2023-02-16T22:18:26.086Z,10.83
2023-02-16T22:20:52.555Z,9.43
2023-02-16T22:23:18.847Z,10.77
2023-02-16T22:25:45.233Z,13.17
2023-02-16T22:28:11.727Z,10.57
2023-02-16T22:30:38.086Z,18.77
2023-02-16T22:33:04.398Z,10.17
2023-02-16T22:35:30.703Z,12.60
2023-02-16T22:37:57.100Z,12.67
2023-02-16T22:40:23.453Z,10.77
2023-02-16T22:42:49.752Z,10.13
2023-02-16T22:45:16.074Z,12.57
2023-02-16T22:47:42.858Z,17.13
2023-02-16T22:50:09.341Z,12.97
2023-02-16T22:52:37.178Z,6.93
2023-02-16T22:55:04.435Z,7.80
2023-02-16T22:57:30.953Z,16.37
2023-02-16T22:59:57.279Z,10.17
2023-02-16T23:02:23.994Z,11.20
2023-02-16T23:04:50.435Z,15.33
2023-02-16T23:07:16.734Z,10.10
2023-02-16T23:09:43.049Z,11.37
2023-02-16T23:12:09.534Z,15.37
2023-02-16T23:14:36.468Z,19.07
2023-02-16T23:17:02.893Z,17.47
2023-02-16T23:19:29.264Z,16.70
2023-02-16T23:21:55.681Z,12.20
2023-02-16T23:24:22.943Z,13.57
2023-02-16T23:26:49.625Z,23.37
2023-02-16T23:29:15.985Z,15.03
2023-02-16T23:31:43.471Z,17.10
2023-02-16T23:34:10.818Z,21.63
2023-02-16T23:36:37.517Z,16.00
2023-02-16T23:39:08.847Z,19.10
2023-02-16T23:41:35.275Z,21.90
2023-02-16T23:44:01.577Z,28.30
2023-02-16T23:46:28.368Z,29.03
2023-02-16T23:48:54.950Z,25.57
2023-02-16T23:51:21.262Z,26.53
2023-02-16T23:53:47.614Z,21.07
2023-02-16T23:56:16.268Z,28.67
2023-02-16T23:58:44.959Z,26.10
